Time;durP1;ratioP1;P1;durP2;ratioP2;P2;SDS_P1;SDS_P2;PMS_P1;PMS_P2;Temp;Humidity;BMP_temperature;BMP_pressure;BME280_temperature;BME280_humidity;BME280_pressure;Samples;Min_cycle;Max_cycle;Signal;HPM_P1;HPM_P2
2023/08/10 00:00:09;;;;;;;;;;;;;;;;;;2073211;28;19921;-80
2023/08/10 00:01:30;;;;;;;;;;;;;;;;;;2078502;28;19909;-80
2023/08/10 00:02:50;;;;;;;;;;;;;;;;;;2081967;28;19909;-80
2023/08/10 00:04:11;;;;;;;;;;;;;;;;;;2082021;28;19924;-80
2023/08/10 00:05:32;;;;;;;;;;;;;;;;;;2083041;28;20316;-80
2023/08/10 00:06:53;;;;;;;;;;;;;;;;;;2081653;28;20241;-80
2023/08/10 00:08:13;;;;;;;;;;;;;;;;;;2083543;28;19913;-81
2023/08/10 00:09:34;;;;;;;;;;;;;;;;;;2083002;28;19936;-80
2023/08/10 00:10:55;;;;;;;;;;;;;;;;;;2082970;28;19909;-80
2023/08/10 00:12:16;;;;;;;;;;;;;;;;;;2079066;28;20284;-80
2023/08/10 00:13:36;;;;;;;;;;;;;;;;;;2082775;28;19979;-80
2023/08/10 00:14:57;;;;;;;;;;;;;;;;;;2080389;28;19914;-80
2023/08/10 00:16:18;;;;;;;;;;;;;;;;;;2077555;28;19986;-80
2023/08/10 00:17:39;;;;;;;;;;;;;;;;;;2078927;28;19917;-79
2023/08/10 00:19:00;;;;;;;;;;;;;;;;;;2075108;28;20385;-79
2023/08/10 00:20:21;;;;;;;;;;;;;;;;;;2080481;28;19917;-80
2023/08/10 00:21:42;;;;;;;;;;;;;;;;;;2082966;28;19947;-80
2023/08/10 00:23:03;;;;;;;;;;;;;;;;;;2082138;28;19909;-80
2023/08/10 00:24:23;;;;;;;;;;;;;;;;;;2082525;28;20627;-80
2023/08/10 00:25:44;;;;;;;;;;;;;;;;;;2079735;28;20391;-80
2023/08/10 00:27:05;;;;;;;;;;;;;;;;;;2075094;28;19910;-80
2023/08/10 00:28:26;;;;;;;;;;;;;;;;;;2075899;28;19913;-81
2023/08/10 00:29:47;;;;;;;;;;;;;;;;;;2080465;28;19916;-80
2023/08/10 00:31:07;;;;;;;;;;;;;;;;;;2081166;28;19913;-79
2023/08/10 00:32:28;;;;;;;;;;;;;;;;;;2074507;28;20380;-80
2023/08/10 00:33:49;;;;;;;;;;;;;;;;;;2074129;28;19964;-80
2023/08/10 00:35:09;;;;;;;;;;;;;;;;;;2076191;28;19939;-80
2023/08/10 00:36:30;;;;;;;;;;;;;;;;;;2082200;28;19932;-79
2023/08/10 00:37:51;;;;;;;;;;;;;;;;;;2079396;28;19909;-80
2023/08/10 00:39:11;;;;;;;;;;;;;;;;;;2085540;28;19908;-79
2023/08/10 00:40:32;;;;;;;;;;;;;;;;;;2079390;28;19916;-80
2023/08/10 00:41:53;;;;;;;;;;;;;;;;;;2071345;28;19914;-79
2023/08/10 00:43:14;;;;;;;;;;;;;;;;;;2077737;28;20333;-79
2023/08/10 00:44:35;;;;;;;;;;;;;;;;;;2082492;28;19913;-80
2023/08/10 00:45:55;;;;;;;;;;;;;;;;;;2082197;28;19913;-80
2023/08/10 00:47:16;;;;;;;;;;;;;;;;;;2077518;28;19910;-80
2023/08/10 00:48:37;;;;;;;;;;;;;;;;;;2080742;28;19928;-80
2023/08/10 00:49:58;;;;;;;;;;;;;;;;;;2073790;28;20265;-81
2023/08/10 00:51:18;;;;;;;;;;;;;;;;;;2077927;28;19913;-81
2023/08/10 00:52:39;;;;;;;;;;;;;;;;;;2077516;28;20345;-80
2023/08/10 00:54:00;;;;;;;;;;;;;;;;;;2070893;28;20238;-81
2023/08/10 00:55:20;;;;;;;;;;;;;;;;;;2081884;28;19913;-80
2023/08/10 00:56:41;;;;;;;;;;;;;;;;;;2081345;28;19913;-81
2023/08/10 00:58:02;;;;;;;;;;;;;;;;;;2081753;28;20285;-80
2023/08/10 00:59:23;;;;;;;;;;;;;;;;;;2073893;28;19916;-80
2023/08/10 01:00:43;;;;;;;;;;;;;;;;;;2080488;28;20190;-81
2023/08/10 01:02:04;;;;;;;;;;;;;;;;;;2079662;28;19914;-79
2023/08/10 01:03:25;;;;;;;;;;;;;;;;;;2076233;28;20356;-80
2023/08/10 01:04:46;;;;;;;;;;;;;;;;;;2076710;28;19971;-79
2023/08/10 01:06:06;;;;;;;;;;;;;;;;;;2083660;28;19989;-81
2023/08/10 01:07:27;;;;;;;;;;;;;;;;;;2075339;28;19981;-80
2023/08/10 01:08:48;;;;;;;;;;;;;;;;;;2071421;28;19916;-81
2023/08/10 01:10:09;;;;;;;;;;;;;;;;;;2071092;28;20345;-81
2023/08/10 01:11:30;;;;;;;;;;;;;;;;;;2075033;28;19968;-80
2023/08/10 01:12:50;;;;;;;;;;;;;;;;;;2074533;28;19967;-80
2023/08/10 01:14:11;;;;;;;;;;;;;;;;;;2072343;28;19928;-81
2023/08/10 01:15:32;;;;;;;;;;;;;;;;;;2075563;28;19925;-81
2023/08/10 01:16:53;;;;;;;;;;;;;;;;;;2080263;28;19920;-80
2023/08/10 01:18:14;;;;;;;;;;;;;;;;;;2073771;28;20281;-81
2023/08/10 01:19:35;;;;;;;;;;;;;;;;;;2071120;28;19914;-81
2023/08/10 01:20:56;;;;;;;;;;;;;;;;;;2080537;28;19909;-80
2023/08/10 01:22:17;;;;;;;;;;;;;;;;;;2074101;28;19917;-80
2023/08/10 01:23:38;;;;;;;;;;;;;;;;;;2079876;28;19917;-80
2023/08/10 01:25:00;;;;;;;;;;;;;;;;;;2081369;28;20431;-80
2023/08/10 01:26:20;;;;;;;;;;;;;;;;;;2081877;28;19913;-80
2023/08/10 01:27:41;;;;;;;;;;;;;;;;;;2079507;28;19936;-80
2023/08/10 01:29:02;;;;;;;;;;;;;;;;;;2079872;28;19909;-80
2023/08/10 01:30:22;;;;;;;;;;;;;;;;;;2078215;28;19909;-81
2023/08/10 01:31:43;;;;;;;;;;;;;;;;;;2078941;28;19917;-81
2023/08/10 01:33:04;;;;;;;;;;;;;;;;;;2082576;28;19913;-81
2023/08/10 01:34:25;;;;;;;;;;;;;;;;;;2082789;28;19980;-80
2023/08/10 01:35:45;;;;;;;;;;;;;;;;;;2082318;28;19909;-80
2023/08/10 01:37:06;;;;;;;;;;;;;;;;;;2081544;28;19913;-80
2023/08/10 01:38:27;;;;;;;;;;;;;;;;;;2073655;28;20392;-80
2023/08/10 01:39:47;;;;;;;;;;;;;;;;;;2072776;28;19921;-80
2023/08/10 01:41:08;;;;;;;;;;;;;;;;;;2077423;28;20440;-80
2023/08/10 01:42:29;;;;;;;;;;;;;;;;;;2077116;28;19936;-79
2023/08/10 01:43:49;;;;;;;;;;;;;;;;;;2076374;28;19967;-80
2023/08/10 01:45:10;;;;;;;;;;;;;;;;;;2076661;28;19982;-80
2023/08/10 01:46:31;;;;;;;;;;;;;;;;;;2072792;28;19960;-80
2023/08/10 01:47:52;;;;;;;;;;;;;;;;;;2076424;28;19913;-80
2023/08/10 01:49:12;;;;;;;;;;;;;;;;;;2074633;28;19917;-79
2023/08/10 01:50:33;;;;;;;;;;;;;;;;;;2073820;28;20040;-80
2023/08/10 01:51:54;;;;;;;;;;;;;;;;;;2072950;28;19925;-80
2023/08/10 01:53:15;;;;;;;;;;;;;;;;;;2075068;28;21886;-79
2023/08/10 01:54:36;;;;;;;;;;;;;;;;;;2077309;28;19921;-80
2023/08/10 01:55:57;;;;;;;;;;;;;;;;;;2079687;28;19944;-80
2023/08/10 01:57:17;;;;;;;;;;;;;;;;;;2081839;28;19909;-81
2023/08/10 01:58:38;;;;;;;;;;;;;;;;;;2081818;28;20277;-80
2023/08/10 01:59:59;;;;;;;;;;;;;;;;;;2082149;28;19916;-80
2023/08/10 02:01:20;;;;;;;;;;;;;;;;;;2081048;28;20024;-80
2023/08/10 02:02:41;;;;;;;;;;;;;;;;;;2075359;28;20300;-80
2023/08/10 02:04:01;;;;;;;;;;;;;;;;;;2078921;28;19917;-81
2023/08/10 02:05:22;;;;;;;;;;;;;;;;;;2087471;28;19916;-81
2023/08/10 02:06:43;;;;;;;;;;;;;;;;;;2078594;28;19975;-80
2023/08/10 02:08:04;;;;;;;;;;;;;;;;;;2081382;28;20321;-81
2023/08/10 02:09:24;;;;;;;;;;;;;;;;;;2080486;28;20454;-80
2023/08/10 02:10:45;;;;;;;;;;;;;;;;;;2086944;28;19963;-80
2023/08/10 02:12:06;;;;;;;;;;;;;;;;;;2079479;28;19963;-80
2023/08/10 02:13:26;;;;;;;;;;;;;;;;;;2077099;28;20292;-80
2023/08/10 02:14:47;;;;;;;;;;;;;;;;;;2072628;28;19921;-80
2023/08/10 02:16:08;;;;;;;;;;;;;;;;;;2074355;28;20365;-80
2023/08/10 02:17:35;;;;;;;;;;;;;;;;;;2073894;28;19910;-80
2023/08/10 02:18:55;;;;;;;;;;;;;;;;;;2076335;28;19909;-80
2023/08/10 02:20:16;;;;;;;;;;;;;;;;;;2073907;28;19921;-80
2023/08/10 02:21:37;;;;;;;;;;;;;;;;;;2083352;28;20343;-80
2023/08/10 02:22:58;;;;;;;;;;;;;;;;;;2082225;28;19932;-80
2023/08/10 02:24:19;;;;;;;;;;;;;;;;;;2079291;28;19917;-80
2023/08/10 02:25:39;;;;;;;;;;;;;;;;;;2082266;28;19909;-80
2023/08/10 02:27:00;;;;;;;;;;;;;;;;;;2081344;28;19916;-80
2023/08/10 02:28:21;;;;;;;;;;;;;;;;;;2081340;28;19960;-80
2023/08/10 02:29:41;;;;;;;;;;;;;;;;;;2081679;28;19936;-80
2023/08/10 02:31:04;;;;;;;;;;;;;;;;;;2080335;28;19932;-80
2023/08/10 02:32:25;;;;;;;;;;;;;;;;;;2084424;28;20392;-80
2023/08/10 02:33:45;;;;;;;;;;;;;;;;;;2078030;28;19920;-80
2023/08/10 02:35:06;;;;;;;;;;;;;;;;;;2080619;28;19996;-80
2023/08/10 02:36:27;;;;;;;;;;;;;;;;;;2072509;28;19914;-80
2023/08/10 02:37:48;;;;;;;;;;;;;;;;;;2073177;28;19919;-80
2023/08/10 02:39:09;;;;;;;;;;;;;;;;;;2079605;28;19936;-80
2023/08/10 02:40:30;;;;;;;;;;;;;;;;;;2079891;28;19963;-80
2023/08/10 02:41:51;;;;;;;;;;;;;;;;;;2081727;28;19917;-80
2023/08/10 02:43:12;;;;;;;;;;;;;;;;;;2080299;28;19909;-79
2023/08/10 02:44:32;;;;;;;;;;;;;;;;;;2073001;28;19944;-80
2023/08/10 02:45:53;;;;;;;;;;;;;;;;;;2075534;28;20424;-80
2023/08/10 02:47:14;;;;;;;;;;;;;;;;;;2077954;28;19913;-80
2023/08/10 02:48:34;;;;;;;;;;;;;;;;;;2076109;28;19917;-79
2023/08/10 02:49:55;;;;;;;;;;;;;;;;;;2080812;28;19996;-80
2023/08/10 02:51:16;;;;;;;;;;;;;;;;;;2074239;28;19921;-80
2023/08/10 02:52:36;;;;;;;;;;;;;;;;;;2077898;28;19920;-81
2023/08/10 02:53:57;;;;;;;;;;;;;;;;;;2080448;28;20327;-81
2023/08/10 02:55:18;;;;;;;;;;;;;;;;;;2073490;28;19910;-80
2023/08/10 02:56:39;;;;;;;;;;;;;;;;;;2080236;28;19913;-81
2023/08/10 02:57:59;;;;;;;;;;;;;;;;;;2081787;28;19909;-81
2023/08/10 02:59:20;;;;;;;;;;;;;;;;;;2073708;28;19913;-81
2023/08/10 03:00:41;;;;;;;;;;;;;;;;;;2076861;28;19913;-80
2023/08/10 03:02:02;;;;;;;;;;;;;;;;;;2081636;28;19909;-80
2023/08/10 03:03:25;;;;;;;;;;;;;;;;;;2080665;28;19917;-80
2023/08/10 03:04:46;;;;;;;;;;;;;;;;;;2081059;28;19928;-79
2023/08/10 03:06:07;;;;;;;;;;;;;;;;;;2071164;28;19976;-80
2023/08/10 03:07:27;;;;;;;;;;;;;;;;;;2079072;28;20296;-81
2023/08/10 03:08:48;;;;;;;;;;;;;;;;;;2077907;28;20320;-80
2023/08/10 03:10:09;;;;;;;;;;;;;;;;;;2080800;28;19913;-80
2023/08/10 03:11:30;;;;;;;;;;;;;;;;;;2085267;28;19913;-80
2023/08/10 03:12:51;;;;;;;;;;;;;;;;;;2084065;28;19913;-80
2023/08/10 03:14:11;;;;;;;;;;;;;;;;;;2079830;28;19921;-80
2023/08/10 03:15:32;;;;;;;;;;;;;;;;;;2081854;28;20324;-80
2023/08/10 03:16:53;;;;;;;;;;;;;;;;;;2079732;28;19975;-80
2023/08/10 03:18:14;;;;;;;;;;;;;;;;;;2081607;28;20324;-80
2023/08/10 03:19:35;;;;;;;;;;;;;;;;;;2079626;28;19967;-81
2023/08/10 03:20:55;;;;;;;;;;;;;;;;;;2074846;28;20313;-80
2023/08/10 03:22:16;;;;;;;;;;;;;;;;;;2081400;28;19909;-80
2023/08/10 03:23:37;;;;;;;;;;;;;;;;;;2081908;28;19909;-80
2023/08/10 03:24:58;;;;;;;;;;;;;;;;;;2073177;28;19921;-80
2023/08/10 03:26:19;;;;;;;;;;;;;;;;;;2076530;28;20376;-80
2023/08/10 03:27:39;;;;;;;;;;;;;;;;;;2079348;28;19909;-80
2023/08/10 03:29:00;;;;;;;;;;;;;;;;;;2072695;28;19914;-81
2023/08/10 03:30:21;;;;;;;;;;;;;;;;;;2075973;28;19917;-80
2023/08/10 03:31:42;;;;;;;;;;;;;;;;;;2080827;28;19913;-80
2023/08/10 03:33:02;;;;;;;;;;;;;;;;;;2080917;28;19972;-79
2023/08/10 03:34:23;;;;;;;;;;;;;;;;;;2079532;28;19913;-79
2023/08/10 03:35:44;;;;;;;;;;;;;;;;;;2080363;28;20296;-80
2023/08/10 03:37:05;;;;;;;;;;;;;;;;;;2074166;28;20007;-80
2023/08/10 03:38:25;;;;;;;;;;;;;;;;;;2081037;28;19921;-80
2023/08/10 03:39:46;;;;;;;;;;;;;;;;;;2076178;28;20292;-80
2023/08/10 03:41:07;;;;;;;;;;;;;;;;;;2083956;28;19920;-81
2023/08/10 03:42:27;;;;;;;;;;;;;;;;;;2077845;28;19909;-80
2023/08/10 03:43:48;;;;;;;;;;;;;;;;;;2076476;28;19914;-80
2023/08/10 03:45:09;;;;;;;;;;;;;;;;;;2078232;28;19932;-80
2023/08/10 03:46:29;;;;;;;;;;;;;;;;;;2082918;28;19996;-80
2023/08/10 03:47:50;;;;;;;;;;;;;;;;;;2074527;28;19909;-80
2023/08/10 03:49:11;;;;;;;;;;;;;;;;;;2083618;28;19936;-81
2023/08/10 03:50:32;;;;;;;;;;;;;;;;;;2084330;28;19913;-81
2023/08/10 03:51:53;;;;;;;;;;;;;;;;;;2080496;28;19917;-80
2023/08/10 03:53:14;;;;;;;;;;;;;;;;;;2077739;28;20423;-80
2023/08/10 03:54:36;;;;;;;;;;;;;;;;;;2073454;28;20464;-80
2023/08/10 03:55:57;;;;;;;;;;;;;;;;;;2075525;28;20365;-80
2023/08/10 03:57:18;;;;;;;;;;;;;;;;;;2082253;28;19967;-81
2023/08/10 03:58:38;;;;;;;;;;;;;;;;;;2082701;28;19913;-81
2023/08/10 03:59:59;;;;;;;;;;;;;;;;;;2082469;28;19909;-81
2023/08/10 04:01:22;;;;;;;;;;;;;;;;;;2079630;28;19932;-81
2023/08/10 04:02:43;;;;;;;;;;;;;;;;;;2075007;28;20234;-81
2023/08/10 04:04:03;;;;;;;;;;;;;;;;;;2079419;28;19916;-81
2023/08/10 04:05:24;;;;;;;;;;;;;;;;;;2079348;28;19922;-81
2023/08/10 04:06:45;;;;;;;;;;;;;;;;;;2081718;28;19928;-80
2023/08/10 04:08:05;;;;;;;;;;;;;;;;;;2079488;28;19920;-81
2023/08/10 04:09:26;;;;;;;;;;;;;;;;;;2079910;28;20304;-80
2023/08/10 04:10:47;;;;;;;;;;;;;;;;;;2079345;28;19920;-81
2023/08/10 04:12:07;;;;;;;;;;;;;;;;;;2082659;28;20298;-80
2023/08/10 04:13:28;;;;;;;;;;;;;;;;;;2081382;28;19913;-80
2023/08/10 04:14:49;;;;;;;;;;;;;;;;;;2082653;28;19967;-81
2023/08/10 04:16:10;;;;;;;;;;;;;;;;;;2076820;28;19921;-81
2023/08/10 04:17:31;;;;;;;;;;;;;;;;;;2074984;28;20381;-81
2023/08/10 04:18:52;;;;;;;;;;;;;;;;;;2079047;28;19966;-80
2023/08/10 04:20:14;;;;;;;;;;;;;;;;;;2080395;28;19975;-81
2023/08/10 04:21:35;;;;;;;;;;;;;;;;;;2079760;28;20307;-80
2023/08/10 04:22:58;;;;;;;;;;;;;;;;;;2078481;28;19933;-80
2023/08/10 04:24:19;;;;;;;;;;;;;;;;;;2075369;28;19917;-80
2023/08/10 04:25:40;;;;;;;;;;;;;;;;;;2073812;28;19951;-80
2023/08/10 04:27:01;;;;;;;;;;;;;;;;;;2080348;28;20350;-80
2023/08/10 04:28:21;;;;;;;;;;;;;;;;;;2077969;28;19920;-80
2023/08/10 04:29:43;;;;;;;;;;;;;;;;;;2076258;28;20336;-80
2023/08/10 04:31:03;;;;;;;;;;;;;;;;;;2073530;28;19921;-80
2023/08/10 04:32:24;;;;;;;;;;;;;;;;;;2079614;28;19917;-80
2023/08/10 04:33:46;;;;;;;;;;;;;;;;;;2083237;28;19963;-80
2023/08/10 04:35:06;;;;;;;;;;;;;;;;;;2076394;28;19925;-80
2023/08/10 04:36:27;;;;;;;;;;;;;;;;;;2072270;28;20301;-80
2023/08/10 04:37:49;;;;;;;;;;;;;;;;;;2071759;28;19917;-80
2023/08/10 04:39:09;;;;;;;;;;;;;;;;;;2084822;28;19909;-80
2023/08/10 04:40:30;;;;;;;;;;;;;;;;;;2087369;28;20411;-80
2023/08/10 04:41:51;;;;;;;;;;;;;;;;;;2082853;28;19909;-81
2023/08/10 04:43:11;;;;;;;;;;;;;;;;;;2073652;28;19909;-80
2023/08/10 04:44:32;;;;;;;;;;;;;;;;;;2073865;28;20296;-80
2023/08/10 04:45:53;;;;;;;;;;;;;;;;;;2080071;28;19914;-80
2023/08/10 04:47:14;;;;;;;;;;;;;;;;;;2080276;28;19913;-80
2023/08/10 04:48:34;;;;;;;;;;;;;;;;;;2078165;28;19921;-80
2023/08/10 04:49:55;;;;;;;;;;;;;;;;;;2074099;28;19999;-81
2023/08/10 04:51:16;;;;;;;;;;;;;;;;;;2087558;28;19917;-80
2023/08/10 04:52:37;;;;;;;;;;;;;;;;;;2084958;28;19909;-80
2023/08/10 04:53:57;;;;;;;;;;;;;;;;;;2080401;28;19928;-80
2023/08/10 04:55:18;;;;;;;;;;;;;;;;;;2078377;28;19925;-81
2023/08/10 04:56:39;;;;;;;;;;;;;;;;;;2082170;28;20430;-80
2023/08/10 04:58:00;;;;;;;;;;;;;;;;;;2082379;28;19909;-80
2023/08/10 04:59:20;;;;;;;;;;;;;;;;;;2082946;28;19909;-80
2023/08/10 05:00:41;;;;;;;;;;;;;;;;;;2081563;28;20407;-81
2023/08/10 05:02:02;;;;;;;;;;;;;;;;;;2077967;28;19913;-81
2023/08/10 05:03:22;;;;;;;;;;;;;;;;;;2074121;28;20353;-80
2023/08/10 05:04:44;;;;;;;;;;;;;;;;;;2078499;28;19913;-80
2023/08/10 05:06:05;;;;;;;;;;;;;;;;;;2081724;28;19921;-80
2023/08/10 05:07:27;;;;;;;;;;;;;;;;;;2082584;28;19920;-81
2023/08/10 05:08:48;;;;;;;;;;;;;;;;;;2081040;28;19914;-80
2023/08/10 05:10:08;;;;;;;;;;;;;;;;;;2074102;28;20365;-81
2023/08/10 05:11:29;;;;;;;;;;;;;;;;;;2079203;28;20388;-80
2023/08/10 05:12:50;;;;;;;;;;;;;;;;;;2070781;28;19952;-81
2023/08/10 05:14:11;;;;;;;;;;;;;;;;;;2071455;28;19909;-80
2023/08/10 05:15:31;;;;;;;;;;;;;;;;;;2072232;28;20027;-83
2023/08/10 05:16:52;;;;;;;;;;;;;;;;;;2079081;28;19909;-81
2023/08/10 05:18:13;;;;;;;;;;;;;;;;;;2080684;28;19920;-80
2023/08/10 05:19:33;;;;;;;;;;;;;;;;;;2080335;28;19913;-80
2023/08/10 05:20:54;;;;;;;;;;;;;;;;;;2074529;28;19913;-82
2023/08/10 05:22:15;;;;;;;;;;;;;;;;;;2079148;28;19913;-79
2023/08/10 05:23:37;;;;;;;;;;;;;;;;;;2081944;28;19928;-80
2023/08/10 05:24:58;;;;;;;;;;;;;;;;;;2072954;28;19960;-80
2023/08/10 05:26:19;;;;;;;;;;;;;;;;;;2081730;28;19909;-81
2023/08/10 05:27:40;;;;;;;;;;;;;;;;;;2083178;28;19909;-80
2023/08/10 05:29:00;;;;;;;;;;;;;;;;;;2078880;28;19913;-81
2023/08/10 05:30:21;;;;;;;;;;;;;;;;;;2079239;28;20357;-80
2023/08/10 05:31:42;;;;;;;;;;;;;;;;;;2074176;28;19980;-81
2023/08/10 05:33:03;;;;;;;;;;;;;;;;;;2071997;28;19909;-81
2023/08/10 05:34:23;;;;;;;;;;;;;;;;;;2081998;28;19921;-79
2023/08/10 05:35:46;;;;;;;;;;;;;;;;;;2081930;28;19936;-79
2023/08/10 05:37:07;;;;;;;;;;;;;;;;;;2081085;28;19917;-79
2023/08/10 05:38:28;;;;;;;;;;;;;;;;;;2075600;28;19917;-79
2023/08/10 05:39:48;;;;;;;;;;;;;;;;;;2081603;28;19916;-79
2023/08/10 05:41:09;;;;;;;;;;;;;;;;;;2082273;28;19913;-79
2023/08/10 05:42:30;;;;;;;;;;;;;;;;;;2081569;28;20372;-79
2023/08/10 05:43:50;;;;;;;;;;;;;;;;;;2079213;28;19914;-79
2023/08/10 05:45:20;;;;;;;;;;;;;;;;;;2077921;28;19917;-79
2023/08/10 05:46:41;;;;;;;;;;;;;;;;;;2079606;28;19924;-79
2023/08/10 05:48:02;;;;;;;;;;;;;;;;;;2080549;28;19909;-79
2023/08/10 05:49:23;;;;;;;;;;;;;;;;;;2078807;28;19909;-79
2023/08/10 05:50:43;;;;;;;;;;;;;;;;;;2085384;28;20372;-78
2023/08/10 05:52:04;;;;;;;;;;;;;;;;;;2087156;28;20315;-79
2023/08/10 05:53:25;;;;;;;;;;;;;;;;;;2071939;28;20443;-79
2023/08/10 05:54:46;;;;;;;;;;;;;;;;;;2069855;28;19914;-79
2023/08/10 05:56:06;;;;;;;;;;;;;;;;;;2071409;28;19921;-79
2023/08/10 05:57:27;;;;;;;;;;;;;;;;;;2078559;28;19916;-79
2023/08/10 05:58:48;;;;;;;;;;;;;;;;;;2072341;28;19910;-78
2023/08/10 06:00:09;;;;;;;;;;;;;;;;;;2070214;28;19920;-79
2023/08/10 06:01:30;;;;;;;;;;;;;;;;;;2071899;28;19936;-79
2023/08/10 06:02:51;;;;;;;;;;;;;;;;;;2071368;28;19909;-79
2023/08/10 06:04:11;;;;;;;;;;;;;;;;;;2074952;28;19929;-79
2023/08/10 06:05:32;;;;;;;;;;;;;;;;;;2071286;28;19929;-79
2023/08/10 06:06:53;;;;;;;;;;;;;;;;;;2079531;28;20007;-79
2023/08/10 06:08:14;;;;;;;;;;;;;;;;;;2076820;28;19916;-79
2023/08/10 06:09:34;;;;;;;;;;;;;;;;;;2081284;28;19960;-79
2023/08/10 06:10:55;;;;;;;;;;;;;;;;;;2080618;28;20284;-79
2023/08/10 06:12:19;;;;;;;;;;;;;;;;;;2080971;28;19916;-79
2023/08/10 06:13:41;;;;;;;;;;;;;;;;;;2076089;28;19992;-79
2023/08/10 06:15:02;;;;;;;;;;;;;;;;;;2075255;28;19933;-80
2023/08/10 06:16:23;;;;;;;;;;;;;;;;;;2080104;28;19909;-80
2023/08/10 06:17:43;;;;;;;;;;;;;;;;;;2079262;28;19922;-80
2023/08/10 06:19:04;;;;;;;;;;;;;;;;;;2078509;28;20365;-80
2023/08/10 06:20:28;;;;;;;;;;;;;;;;;;2076932;28;20317;-80
2023/08/10 06:21:48;;;;;;;;;;;;;;;;;;2081142;28;20492;-79
2023/08/10 06:23:09;;;;;;;;;;;;;;;;;;2080644;28;19920;-80
2023/08/10 06:24:30;;;;;;;;;;;;;;;;;;2081234;28;19914;-80
2023/08/10 06:25:50;;;;;;;;;;;;;;;;;;2078809;28;19995;-80
2023/08/10 06:27:11;;;;;;;;;;;;;;;;;;2079684;28;20446;-80
2023/08/10 06:28:32;;;;;;;;;;;;;;;;;;2075942;28;19914;-79
2023/08/10 06:29:53;;;;;;;;;;;;;;;;;;2080621;28;19916;-79
2023/08/10 06:31:14;;;;;;;;;;;;;;;;;;2082632;28;19913;-79
2023/08/10 06:32:35;;;;;;;;;;;;;;;;;;2071000;28;19925;-80
2023/08/10 06:33:56;;;;;;;;;;;;;;;;;;2075044;28;19913;-80
2023/08/10 06:35:17;;;;;;;;;;;;;;;;;;2079437;28;19913;-79
2023/08/10 06:36:37;;;;;;;;;;;;;;;;;;2080939;28;20352;-80
2023/08/10 06:37:58;;;;;;;;;;;;;;;;;;2073907;28;19913;-79
2023/08/10 06:39:19;;;;;;;;;;;;;;;;;;2076758;28;19917;-80
2023/08/10 06:40:40;;;;;;;;;;;;;;;;;;2069780;28;19929;-81
2023/08/10 06:42:01;;;;;;;;;;;;;;;;;;2076518;28;20601;-80
2023/08/10 06:43:22;;;;;;;;;;;;;;;;;;2077356;28;19959;-80
2023/08/10 06:44:43;;;;;;;;;;;;;;;;;;2076111;28;19913;-81
2023/08/10 06:46:03;;;;;;;;;;;;;;;;;;2077464;28;20253;-80
2023/08/10 06:47:24;;;;;;;;;;;;;;;;;;2072287;28;20427;-80
2023/08/10 06:48:45;;;;;;;;;;;;;;;;;;2071979;28;20038;-81
2023/08/10 06:50:08;;;;;;;;;;;;;;;;;;2074870;28;19917;-80
2023/08/10 06:51:28;;;;;;;;;;;;;;;;;;2073357;28;19921;-80
2023/08/10 06:52:49;;;;;;;;;;;;;;;;;;2081291;28;20276;-80
2023/08/10 06:54:10;;;;;;;;;;;;;;;;;;2085683;28;19909;-80
2023/08/10 06:55:30;;;;;;;;;;;;;;;;;;2080705;28;19914;-81
2023/08/10 06:56:51;;;;;;;;;;;;;;;;;;2080921;28;19913;-80
2023/08/10 06:58:12;;;;;;;;;;;;;;;;;;2077692;28;20312;-80
2023/08/10 06:59:33;;;;;;;;;;;;;;;;;;2078967;28;19909;-80
2023/08/10 07:00:53;;;;;;;;;;;;;;;;;;2073937;28;19917;-80
2023/08/10 07:02:14;;;;;;;;;;;;;;;;;;2073651;28;19909;-81
2023/08/10 07:03:35;;;;;;;;;;;;;;;;;;2081516;28;19909;-80
2023/08/10 07:04:56;;;;;;;;;;;;;;;;;;2088872;28;19912;-80
2023/08/10 07:06:17;;;;;;;;;;;;;;;;;;2078881;28;20042;-80
2023/08/10 07:07:38;;;;;;;;;;;;;;;;;;2078546;28;19913;-80
2023/08/10 07:08:58;;;;;;;;;;;;;;;;;;2078447;28;19909;-80
2023/08/10 07:10:19;;;;;;;;;;;;;;;;;;2078199;28;20293;-81
2023/08/10 07:11:40;;;;;;;;;;;;;;;;;;2078274;28;19916;-80
2023/08/10 07:13:01;;;;;;;;;;;;;;;;;;2077269;28;19916;-83
2023/08/10 07:14:22;;;;;;;;;;;;;;;;;;2079948;28;19920;-81
2023/08/10 07:15:42;;;;;;;;;;;;;;;;;;2073550;28;19921;-81
2023/08/10 07:17:03;;;;;;;;;;;;;;;;;;2080864;28;19916;-81
2023/08/10 07:18:24;;;;;;;;;;;;;;;;;;2085892;28;19920;-81
2023/08/10 07:19:44;;;;;;;;;;;;;;;;;;2089803;28;19924;-81
2023/08/10 07:21:06;;;;;;;;;;;;;;;;;;2072525;28;20393;-82
2023/08/10 07:22:27;;;;;;;;;;;;;;;;;;2077302;28;20020;-83
2023/08/10 07:23:48;;;;;;;;;;;;;;;;;;2075406;28;19922;-82
2023/08/10 07:25:09;;;;;;;;;;;;;;;;;;2073196;28;20467;-83
2023/08/10 07:26:29;;;;;;;;;;;;;;;;;;2075656;28;19921;-80
2023/08/10 07:27:50;;;;;;;;;;;;;;;;;;2074792;28;20353;-83
2023/08/10 07:29:11;;;;;;;;;;;;;;;;;;2080727;28;19998;-82
2023/08/10 07:30:33;;;;;;;;;;;;;;;;;;2078323;28;19963;-82
2023/08/10 07:32:00;;;;;;;;;;;;;;;;;;2078260;28;19913;-82
2023/08/10 07:33:21;;;;;;;;;;;;;;;;;;2076261;28;19920;-82
2023/08/10 07:34:42;;;;;;;;;;;;;;;;;;2073122;28;19929;-83
2023/08/10 07:36:02;;;;;;;;;;;;;;;;;;2071649;28;19929;-83
2023/08/10 07:37:23;;;;;;;;;;;;;;;;;;2079407;28;20369;-82
2023/08/10 07:38:44;;;;;;;;;;;;;;;;;;2081401;28;19966;-83
2023/08/10 07:40:05;;;;;;;;;;;;;;;;;;2074066;28;19972;-82
2023/08/10 07:41:25;;;;;;;;;;;;;;;;;;2073629;28;20285;-82
2023/08/10 07:42:46;;;;;;;;;;;;;;;;;;2078238;28;19913;-82
2023/08/10 07:44:07;;;;;;;;;;;;;;;;;;2077513;28;20317;-82
2023/08/10 07:45:27;;;;;;;;;;;;;;;;;;2072704;28;19910;-82
2023/08/10 07:46:48;;;;;;;;;;;;;;;;;;2079922;28;19917;-83
2023/08/10 07:48:09;;;;;;;;;;;;;;;;;;2072627;28;19917;-83
2023/08/10 07:49:31;;;;;;;;;;;;;;;;;;2077924;28;19915;-83
2023/08/10 07:50:54;;;;;;;;;;;;;;;;;;2089984;28;19916;-82
2023/08/10 07:52:15;;;;;;;;;;;;;;;;;;2077829;28;20297;-83
2023/08/10 07:53:35;;;;;;;;;;;;;;;;;;2086517;28;19920;-83
2023/08/10 07:54:56;;;;;;;;;;;;;;;;;;2069718;28;20290;-83
2023/08/10 07:56:17;;;;;;;;;;;;;;;;;;2073171;28;19936;-83
2023/08/10 07:57:37;;;;;;;;;;;;;;;;;;2088230;28;20308;-83
2023/08/10 07:58:58;;;;;;;;;;;;;;;;;;2076013;28;19913;-83
2023/08/10 08:00:19;;;;;;;;;;;;;;;;;;2080583;28;19913;-81
2023/08/10 08:01:40;;;;;;;;;;;;;;;;;;2087870;28;19912;-80
2023/08/10 08:03:01;;;;;;;;;;;;;;;;;;2082671;28;20280;-81
2023/08/10 08:04:22;;;;;;;;;;;;;;;;;;2079056;28;20353;-81
2023/08/10 08:05:43;;;;;;;;;;;;;;;;;;2077537;28;20341;-81
2023/08/10 08:07:03;;;;;;;;;;;;;;;;;;2080000;28;19910;-81
2023/08/10 08:08:24;;;;;;;;;;;;;;;;;;2083999;28;19917;-81
2023/08/10 08:09:45;;;;;;;;;;;;;;;;;;2087876;28;19917;-81
2023/08/10 08:11:05;;;;;;;;;;;;;;;;;;2075916;28;19925;-81
2023/08/10 08:12:26;;;;;;;;;;;;;;;;;;2085843;28;20411;-81
2023/08/10 08:13:47;;;;;;;;;;;;;;;;;;2080846;28;19920;-81
2023/08/10 08:15:08;;;;;;;;;;;;;;;;;;2087540;28;20362;-82
2023/08/10 08:16:28;;;;;;;;;;;;;;;;;;2078756;28;19921;-81
2023/08/10 08:17:49;;;;;;;;;;;;;;;;;;2086758;28;19921;-81
2023/08/10 08:19:10;;;;;;;;;;;;;;;;;;2081866;28;19936;-81
2023/08/10 08:20:31;;;;;;;;;;;;;;;;;;2078294;28;19917;-81
2023/08/10 08:21:51;;;;;;;;;;;;;;;;;;2078883;28;19914;-81
2023/08/10 08:23:12;;;;;;;;;;;;;;;;;;2076604;28;19914;-81
2023/08/10 08:24:33;;;;;;;;;;;;;;;;;;2081347;28;19913;-80
2023/08/10 08:25:53;;;;;;;;;;;;;;;;;;2087219;28;19912;-81
2023/08/10 08:27:14;;;;;;;;;;;;;;;;;;2086622;28;19913;-81
2023/08/10 08:28:35;;;;;;;;;;;;;;;;;;2080246;28;20354;-81
2023/08/10 08:29:55;;;;;;;;;;;;;;;;;;2083510;28;19917;-83
2023/08/10 08:31:16;;;;;;;;;;;;;;;;;;2088052;28;19909;-85
2023/08/10 08:32:37;;;;;;;;;;;;;;;;;;2081493;28;19913;-85
2023/08/10 08:33:58;;;;;;;;;;;;;;;;;;2080209;28;19913;-84
2023/08/10 08:35:18;;;;;;;;;;;;;;;;;;2081665;28;20257;-84
2023/08/10 08:36:39;;;;;;;;;;;;;;;;;;2080339;28;19936;-85
2023/08/10 08:38:00;;;;;;;;;;;;;;;;;;2081504;28;20452;-85
2023/08/10 08:39:21;;;;;;;;;;;;;;;;;;2089360;28;19955;-82
2023/08/10 08:40:42;;;;;;;;;;;;;;;;;;2082011;28;20280;-83
2023/08/10 08:42:02;;;;;;;;;;;;;;;;;;2078833;28;20040;-82
2023/08/10 08:43:23;;;;;;;;;;;;;;;;;;2080987;28;19931;-81
2023/08/10 08:44:44;;;;;;;;;;;;;;;;;;2088871;28;19913;-82
2023/08/10 08:46:07;;;;;;;;;;;;;;;;;;2081942;28;19924;-82
2023/08/10 08:47:28;;;;;;;;;;;;;;;;;;2083666;28;20289;-83
2023/08/10 08:48:49;;;;;;;;;;;;;;;;;;2076502;28;19914;-82
2023/08/10 08:50:10;;;;;;;;;;;;;;;;;;2088142;28;19913;-82
2023/08/10 08:51:31;;;;;;;;;;;;;;;;;;2082382;28;19956;-83
2023/08/10 08:52:52;;;;;;;;;;;;;;;;;;2083264;28;19976;-82
2023/08/10 08:54:13;;;;;;;;;;;;;;;;;;2080643;28;19944;-83
2023/08/10 08:55:34;;;;;;;;;;;;;;;;;;2074128;28;20273;-83
2023/08/10 08:56:55;;;;;;;;;;;;;;;;;;2077595;28;19972;-87
2023/08/10 08:58:16;;;;;;;;;;;;;;;;;;2083150;28;19920;-89
2023/08/10 08:59:37;;;;;;;;;;;;;;;;;;2090206;28;20276;-85
2023/08/10 09:00:57;;;;;;;;;;;;;;;;;;2083351;28;19920;-86
2023/08/10 09:02:18;;;;;;;;;;;;;;;;;;2080177;28;19975;-86
2023/08/10 09:03:39;;;;;;;;;;;;;;;;;;2077856;28;19913;-86
2023/08/10 09:05:00;;;;;;;;;;;;;;;;;;2077874;28;20353;-86
2023/08/10 09:06:20;;;;;;;;;;;;;;;;;;2077696;28;20300;-86
2023/08/10 09:07:41;;;;;;;;;;;;;;;;;;2078799;28;19924;-86
2023/08/10 09:09:02;;;;;;;;;;;;;;;;;;2081517;28;19913;-85
2023/08/10 09:10:23;;;;;;;;;;;;;;;;;;2081991;28;19914;-85
2023/08/10 09:11:43;;;;;;;;;;;;;;;;;;2083421;28;19909;-86